Terminal Aerodrome Forecast
Issued by NWS

Home | Current Version | Previous Version | Text Only | Print | Product List | Glossary On
Versions: 1 2 3 4 5 6 7 8 9 10 11 12 13 14
688
FTUS45 KPSR 142336
TAFBLH
TAF
KBLH 142336Z 1500/1524 35014G25KT P6SM SCT250
     FM150200 35011KT P6SM SCT250 WS020/36035KT
     FM150900 34014KT P6SM SKC=

USA.gov is the U.S. government's official web portal to all federal, state and local government web resources and services.